createdAt,value
2022-12-16T00:00:01.644Z,12.98
2022-12-16T00:03:07.200Z,12.13
2022-12-16T00:06:10.699Z,13.27
2022-12-16T00:09:14.702Z,13.32
2022-12-16T00:12:17.468Z,11.43
2022-12-16T00:15:21.464Z,12.63
2022-12-16T00:18:28.222Z,12.40
2022-12-16T00:21:30.911Z,12.45
2022-12-16T00:24:34.974Z,12.57
2022-12-16T00:27:37.699Z,12.53
2022-12-16T00:30:42.200Z,11.85
2022-12-16T00:33:47.562Z,13.15
2022-12-16T00:36:50.233Z,12.13
2022-12-16T00:39:54.607Z,13.20
2022-12-16T00:42:57.826Z,12.63
2022-12-16T00:46:01.869Z,12.52
2022-12-16T00:49:07.559Z,13.00
2022-12-16T00:52:10.226Z,12.75
2022-12-16T00:55:14.374Z,13.43
2022-12-16T00:58:17.260Z,12.43
2022-12-16T01:01:21.750Z,12.40
2022-12-16T01:04:27.887Z,12.45
2022-12-16T01:07:30.572Z,13.20
2022-12-16T01:10:34.699Z,12.88
2022-12-16T01:13:37.430Z,12.47
2022-12-16T01:16:41.412Z,12.85
2022-12-16T01:19:46.752Z,13.02
2022-12-16T01:22:49.435Z,12.55
2022-12-16T01:25:58.353Z,12.77
2022-12-16T01:29:02.297Z,11.20
2022-12-16T01:32:06.341Z,11.60
2022-12-16T01:35:43.923Z,12.80
2022-12-16T01:38:35.341Z,12.57
2022-12-16T01:41:39.424Z,13.77
2022-12-16T01:44:45.665Z,14.30
2022-12-16T01:47:48.381Z,12.93
2022-12-16T01:51:00.623Z,14.75
2022-12-16T01:54:07.805Z,14.43
2022-12-16T01:57:15.910Z,14.30
2022-12-16T02:00:20.128Z,14.47
2022-12-16T02:03:23.347Z,13.60
2022-12-16T02:06:28.827Z,14.70
2022-12-16T02:09:32.835Z,13.20
2022-12-16T02:12:47.577Z,14.00
2022-12-16T02:16:00.454Z,13.33
2022-12-16T02:19:17.978Z,14.95
2022-12-16T02:22:34.541Z,13.73
2022-12-16T02:26:05.770Z,13.02
2022-12-16T02:29:47.884Z,13.90
2022-12-16T02:33:09.742Z,14.13
2022-12-16T02:36:20.586Z,13.82
2022-12-16T02:39:28.081Z,12.70
2022-12-16T02:42:32.342Z,14.25
2022-12-16T02:45:38.092Z,14.70
2022-12-16T02:48:42.228Z,13.63
2022-12-16T02:51:47.046Z,13.55
2022-12-16T02:54:54.318Z,15.57
2022-12-16T02:58:07.802Z,15.32
2022-12-16T03:01:19.842Z,14.63
2022-12-16T03:04:32.854Z,12.17
2022-12-16T03:07:40.815Z,13.60
2022-12-16T03:10:48.424Z,13.82
2022-12-16T03:13:53.974Z,15.07
2022-12-16T03:16:58.911Z,13.43
2022-12-16T03:20:12.593Z,16.23
2022-12-16T03:23:19.871Z,14.67
2022-12-16T03:26:27.888Z,15.13
2022-12-16T03:29:41.250Z,15.20
2022-12-16T03:32:53.319Z,16.10
2022-12-16T03:36:03.111Z,14.20
2022-12-16T03:39:09.729Z,14.73
2022-12-16T03:42:15.031Z,15.68
2022-12-16T03:45:23.501Z,15.38
2022-12-16T03:48:28.257Z,14.50
2022-12-16T03:51:32.302Z,14.15
2022-12-16T03:54:36.253Z,14.43
2022-12-16T03:57:40.275Z,15.20
2022-12-16T04:00:43.104Z,15.75
2022-12-16T04:03:45.893Z,14.18
2022-12-16T04:07:10.901Z,16.10
2022-12-16T04:10:14.908Z,14.53
2022-12-16T04:13:33.002Z,14.85
2022-12-16T04:16:53.712Z,14.52
2022-12-16T04:24:05.214Z,13.65
2022-12-16T04:27:28.667Z,14.07
2022-12-16T04:30:36.353Z,13.50
2022-12-16T04:33:57.150Z,15.13
2022-12-16T04:37:20.254Z,14.80
2022-12-16T04:40:41.038Z,14.20
2022-12-16T04:44:01.307Z,13.70
2022-12-16T04:47:22.985Z,14.38
2022-12-16T04:50:48.754Z,14.35
2022-12-16T04:54:10.275Z,14.45
2022-12-16T04:57:33.115Z,13.88
2022-12-16T05:00:55.016Z,13.37
2022-12-16T05:04:16.944Z,13.73
2022-12-16T05:07:38.778Z,13.80
2022-12-16T05:11:00.148Z,13.85
2022-12-16T05:14:21.628Z,14.48
2022-12-16T05:17:42.998Z,12.43
2022-12-16T05:21:04.530Z,14.70
2022-12-16T05:24:24.811Z,15.18
2022-12-16T05:27:46.065Z,13.52
2022-12-16T05:31:07.951Z,13.98
2022-12-16T05:34:29.640Z,14.33
2022-12-16T05:37:51.213Z,13.30
2022-12-16T05:41:11.463Z,14.73
2022-12-16T05:44:33.019Z,13.27
2022-12-16T05:47:55.592Z,14.10
2022-12-16T05:51:15.755Z,11.97
2022-12-16T05:54:37.359Z,14.23
2022-12-16T05:57:58.950Z,13.30
2022-12-16T06:01:19.160Z,12.65
2022-12-16T06:04:42.114Z,12.18
2022-12-16T06:08:09.598Z,12.50
2022-12-16T06:15:10.772Z,12.98
2022-12-16T06:18:31.074Z,12.82
2022-12-16T06:21:54.089Z,12.30
2022-12-16T06:25:15.481Z,12.40
2022-12-16T06:28:35.708Z,12.40
2022-12-16T06:31:57.249Z,14.15
2022-12-16T06:35:18.876Z,13.27
2022-12-16T06:38:40.434Z,13.32
2022-12-16T06:42:02.106Z,12.30
2022-12-16T06:45:23.898Z,12.30
2022-12-16T06:48:44.159Z,12.50
2022-12-16T06:52:05.787Z,13.35
2022-12-16T06:55:27.287Z,13.13
2022-12-16T06:58:48.706Z,12.60
2022-12-16T07:02:10.226Z,12.52
2022-12-16T07:05:35.770Z,13.18
2022-12-16T07:12:37.409Z,13.93
2022-12-16T07:16:00.001Z,12.40
2022-12-16T07:19:21.525Z,13.02
2022-12-16T07:22:42.905Z,14.15
2022-12-16T07:26:03.178Z,14.13
2022-12-16T07:33:05.044Z,13.53
2022-12-16T07:36:22.070Z,13.10
2022-12-16T07:39:43.703Z,13.18
2022-12-16T07:43:06.980Z,13.93
2022-12-16T07:46:29.938Z,14.77
2022-12-16T07:49:51.373Z,14.13
2022-12-16T07:53:15.847Z,12.13
2022-12-16T07:56:37.269Z,13.30
2022-12-16T07:59:58.782Z,12.85
2022-12-16T08:03:20.109Z,13.75
2022-12-16T08:06:41.697Z,12.63
2022-12-16T08:10:02.036Z,13.98
2022-12-16T08:13:26.156Z,13.23
2022-12-16T08:16:47.711Z,12.05
2022-12-16T08:20:09.169Z,14.05
2022-12-16T08:23:31.072Z,13.87
2022-12-16T08:30:31.279Z,14.30
2022-12-16T08:33:52.583Z,14.48
2022-12-16T08:37:15.354Z,14.27
2022-12-16T08:40:36.543Z,13.90
2022-12-16T08:43:58.648Z,15.32
2022-12-16T08:47:20.262Z,15.48
2022-12-16T08:50:40.464Z,15.52
2022-12-16T08:54:03.349Z,14.88
2022-12-16T08:57:23.749Z,14.93
2022-12-16T09:04:24.133Z,13.98
2022-12-16T09:07:44.337Z,14.00
2022-12-16T09:14:46.272Z,14.23
2022-12-16T09:18:18.341Z,15.65
2022-12-16T09:21:51.386Z,14.73
2022-12-16T09:25:13.185Z,16.90
2022-12-16T09:28:34.857Z,14.98
2022-12-16T09:31:56.362Z,15.10
2022-12-16T09:35:32.300Z,15.30
2022-12-16T09:38:52.148Z,15.10
2022-12-16T09:42:23.241Z,16.98
2022-12-16T09:45:56.542Z,17.38
2022-12-16T09:49:24.917Z,16.80
2022-12-16T09:52:47.974Z,16.00
2022-12-16T09:56:07.982Z,18.33
2022-12-16T09:59:33.144Z,17.83
2022-12-16T10:06:48.353Z,17.23
2022-12-16T10:10:17.093Z,15.93
2022-12-16T10:13:47.431Z,15.93
2022-12-16T10:17:15.401Z,17.13
2022-12-16T10:20:49.772Z,16.10
2022-12-16T10:24:20.400Z,15.33
2022-12-16T10:27:50.709Z,17.83
2022-12-16T10:31:12.810Z,18.37
2022-12-16T10:34:36.631Z,17.77
2022-12-16T10:38:01.316Z,18.45
2022-12-16T10:45:11.607Z,19.03
2022-12-16T10:48:33.889Z,18.10
2022-12-16T10:51:55.722Z,21.38
2022-12-16T10:55:33.802Z,21.45
2022-12-16T10:59:02.519Z,20.48
2022-12-16T11:02:36.890Z,21.77
2022-12-16T11:05:57.048Z,19.88
2022-12-16T11:09:35.112Z,20.77
2022-12-16T11:13:09.117Z,18.98
2022-12-16T11:16:32.858Z,21.58
2022-12-16T11:19:54.290Z,19.93
2022-12-16T11:23:36.569Z,19.17
2022-12-16T11:27:12.724Z,21.60
2022-12-16T11:30:40.927Z,19.40
2022-12-16T11:34:03.186Z,19.75
2022-12-16T11:37:24.515Z,17.70
2022-12-16T11:44:26.734Z,20.63
2022-12-16T11:51:37.141Z,18.30
2022-12-16T11:55:04.971Z,17.90
2022-12-16T12:06:04.515Z,19.38
2022-12-16T12:13:19.051Z,20.00
2022-12-16T12:16:46.866Z,20.15
2022-12-16T12:20:22.371Z,24.30
2022-12-16T12:23:53.999Z,22.45
2022-12-16T12:27:25.531Z,21.58
2022-12-16T12:30:47.162Z,20.93
2022-12-16T12:34:19.085Z,18.98
2022-12-16T12:37:47.242Z,20.90
2022-12-16T12:41:17.792Z,19.73
2022-12-16T12:44:48.994Z,20.15
2022-12-16T12:48:20.791Z,18.80
2022-12-16T12:51:49.148Z,19.75
2022-12-16T12:55:18.558Z,20.88
2022-12-16T13:02:23.276Z,20.90
2022-12-16T13:05:47.602Z,20.93
2022-12-16T13:09:16.304Z,20.05
2022-12-16T13:12:47.264Z,20.55
2022-12-16T13:16:10.117Z,20.88
2022-12-16T13:19:59.025Z,19.33
2022-12-16T13:23:49.315Z,19.00
2022-12-16T13:27:21.258Z,18.83
2022-12-16T13:30:42.964Z,20.83
2022-12-16T13:34:10.770Z,19.90
2022-12-16T13:37:45.098Z,21.55
2022-12-16T13:41:12.489Z,20.87
2022-12-16T13:45:08.850Z,22.30
2022-12-16T13:48:47.567Z,22.65
2022-12-16T13:52:20.608Z,22.02
2022-12-16T13:55:47.751Z,20.63
2022-12-16T13:59:11.938Z,22.13
2022-12-16T14:02:50.808Z,22.00
2022-12-16T14:06:14.712Z,22.20
2022-12-16T14:09:48.296Z,20.55
2022-12-16T14:13:18.057Z,21.25
2022-12-16T14:16:49.681Z,22.00
2022-12-16T14:20:20.582Z,20.52
2022-12-16T14:23:58.190Z,20.83
2022-12-16T14:27:36.633Z,20.48
2022-12-16T14:30:57.834Z,24.27
2022-12-16T14:37:59.948Z,21.60
2022-12-16T14:41:21.558Z,21.77
2022-12-16T14:44:44.296Z,20.08
2022-12-16T14:48:05.774Z,20.80
2022-12-16T14:51:47.782Z,19.90
2022-12-16T14:55:08.082Z,53.28
2022-12-16T14:58:32.219Z,36.67
2022-12-16T15:01:55.699Z,23.30
2022-12-16T15:05:16.900Z,21.20
2022-12-16T15:08:50.445Z,21.60
2022-12-16T15:12:14.179Z,20.52
2022-12-16T15:15:45.436Z,20.20
2022-12-16T15:19:17.256Z,25.23
2022-12-16T15:22:37.509Z,22.02
2022-12-16T15:26:04.073Z,19.90
2022-12-16T15:29:39.401Z,20.85
2022-12-16T15:33:01.950Z,20.80
2022-12-16T15:36:25.583Z,20.48
2022-12-16T15:39:50.300Z,20.67
2022-12-16T15:43:12.279Z,21.73
2022-12-16T15:46:37.577Z,19.67
2022-12-16T15:50:04.026Z,20.45
2022-12-16T15:53:57.309Z,19.67
2022-12-16T15:57:17.470Z,19.30
2022-12-16T16:00:43.399Z,18.50
2022-12-16T16:04:08.313Z,20.40
2022-12-16T16:07:35.684Z,19.90
2022-12-16T16:11:00.777Z,19.90
2022-12-16T16:14:41.909Z,21.45
2022-12-16T16:18:02.439Z,20.37
2022-12-16T16:21:23.785Z,21.45
2022-12-16T16:24:45.390Z,20.35
2022-12-16T16:28:08.333Z,19.77
2022-12-16T16:31:29.221Z,21.60
2022-12-16T16:34:51.168Z,21.03
2022-12-16T16:38:24.037Z,20.92
2022-12-16T16:41:44.323Z,21.88
2022-12-16T16:48:48.015Z,21.23
2022-12-16T16:52:08.318Z,21.37
2022-12-16T16:59:13.793Z,19.20
2022-12-16T17:02:41.167Z,20.60
2022-12-16T17:06:03.168Z,20.88
2022-12-16T17:09:23.453Z,20.37
2022-12-16T17:12:46.496Z,21.58
2022-12-16T17:16:06.923Z,22.02
2022-12-16T17:19:39.866Z,22.60
2022-12-16T17:23:00.540Z,21.30
2022-12-16T17:26:20.800Z,21.17
2022-12-16T17:29:43.013Z,20.52
2022-12-16T17:33:04.495Z,21.02
2022-12-16T17:36:31.901Z,20.52
2022-12-16T17:39:52.665Z,21.83
2022-12-16T17:43:12.926Z,20.47
2022-12-16T17:46:34.589Z,22.33
2022-12-16T17:49:56.202Z,22.13
2022-12-16T17:53:18.138Z,21.42
2022-12-16T17:56:39.710Z,20.55
2022-12-16T17:59:59.993Z,19.60
2022-12-16T18:03:21.687Z,20.98
2022-12-16T18:06:42.087Z,21.15
2022-12-16T18:10:09.874Z,20.08
2022-12-16T18:13:31.668Z,20.85
2022-12-16T18:16:51.868Z,20.63
2022-12-16T18:20:12.269Z,21.02
2022-12-16T18:23:33.468Z,20.55
2022-12-16T18:27:06.824Z,21.10
2022-12-16T18:30:28.511Z,23.52
2022-12-16T18:37:31.042Z,21.58
2022-12-16T18:40:52.284Z,22.17
2022-12-16T18:44:14.998Z,21.00
2022-12-16T18:47:36.265Z,20.98
2022-12-16T18:50:57.734Z,20.70
2022-12-16T18:54:32.451Z,21.23
2022-12-16T18:57:53.901Z,23.17
2022-12-16T19:01:20.486Z,21.15
2022-12-16T19:04:40.600Z,21.48
2022-12-16T19:08:00.885Z,21.13
2022-12-16T19:11:22.392Z,20.98
2022-12-16T19:14:42.474Z,21.23
2022-12-16T19:18:04.237Z,20.48
2022-12-16T19:21:24.556Z,20.40
2022-12-16T19:24:46.094Z,20.70
2022-12-16T19:28:06.398Z,20.25
2022-12-16T19:31:32.379Z,20.42
2022-12-16T19:34:54.039Z,21.13
2022-12-16T19:38:14.688Z,20.73
2022-12-16T19:41:36.734Z,20.00
2022-12-16T19:44:58.381Z,20.95
2022-12-16T19:48:19.724Z,20.17
2022-12-16T19:51:42.409Z,20.53
2022-12-16T19:55:03.797Z,19.50
2022-12-16T20:02:02.182Z,19.48
2022-12-16T20:05:24.198Z,20.50
2022-12-16T20:08:47.091Z,20.50
2022-12-16T20:12:07.324Z,20.17
2022-12-16T20:15:29.368Z,20.75
2022-12-16T20:19:06.340Z,20.17
2022-12-16T20:22:26.685Z,21.00
2022-12-16T20:25:49.584Z,22.40
2022-12-16T20:29:11.032Z,21.38
2022-12-16T20:32:33.114Z,20.70
2022-12-16T20:35:53.322Z,19.50
2022-12-16T20:42:58.009Z,18.37
2022-12-16T20:46:19.506Z,18.38
2022-12-16T20:49:39.737Z,18.15
2022-12-16T20:53:01.363Z,18.70
2022-12-16T20:56:22.910Z,18.33
2022-12-16T20:59:44.445Z,18.30
2022-12-16T21:03:06.020Z,19.08
2022-12-16T21:06:26.610Z,19.35
2022-12-16T21:09:48.040Z,17.17
2022-12-16T21:13:08.181Z,17.70
2022-12-16T21:16:30.932Z,17.20
2022-12-16T21:19:52.338Z,18.15
2022-12-16T21:23:19.535Z,18.55
2022-12-16T21:26:39.880Z,18.83
2022-12-16T21:30:01.351Z,18.60
2022-12-16T21:33:23.052Z,15.97
2022-12-16T21:36:43.489Z,16.42
2022-12-16T21:40:05.001Z,16.15
2022-12-16T21:43:25.280Z,17.50
2022-12-16T21:46:46.745Z,18.13
2022-12-16T21:50:09.520Z,18.03
2022-12-16T21:53:29.562Z,18.27
2022-12-16T21:56:51.286Z,17.48
2022-12-16T22:00:24.644Z,19.27
2022-12-16T22:03:44.917Z,20.03
2022-12-16T22:10:46.933Z,18.75
2022-12-16T22:14:07.195Z,19.05
2022-12-16T22:17:28.422Z,19.38
2022-12-16T22:20:48.656Z,19.43
2022-12-16T22:24:11.827Z,17.70
2022-12-16T22:27:33.338Z,18.13
2022-12-16T22:30:53.641Z,18.05
2022-12-16T22:34:17.562Z,19.83
2022-12-16T22:37:39.058Z,18.73
2022-12-16T22:41:00.807Z,19.77
2022-12-16T22:44:22.420Z,19.20
2022-12-16T22:47:42.470Z,18.08
2022-12-16T22:51:03.718Z,19.35
2022-12-16T22:54:25.049Z,20.43
2022-12-16T22:57:47.487Z,20.03
2022-12-16T23:01:09.079Z,19.30
2022-12-16T23:04:30.287Z,17.67
2022-12-16T23:07:51.869Z,17.63
2022-12-16T23:11:14.564Z,17.80
2022-12-16T23:18:17.681Z,18.13
2022-12-16T23:21:39.730Z,17.88
2022-12-16T23:25:01.260Z,18.58
2022-12-16T23:28:21.632Z,19.77
2022-12-16T23:31:43.273Z,18.23
2022-12-16T23:35:04.773Z,19.00
2022-12-16T23:38:25.451Z,18.15
2022-12-16T23:41:46.999Z,18.17
2022-12-16T23:48:47.786Z,16.63
2022-12-16T23:52:09.230Z,17.63
2022-12-16T23:55:30.109Z,17.92
2022-12-16T23:58:51.923Z,18.35
